Time;durP1;ratioP1;P1;durP2;ratioP2;P2;SDS_P1;SDS_P2;PMS_P1;PMS_P2;Temp;Humidity;BMP_temperature;BMP_pressure;BME280_temperature;BME280_humidity;BME280_pressure;Samples;Min_cycle;Max_cycle;Signal;HPM_P1;HPM_P2
2023/05/08 00:00:42;;;;;;;;;;;;;;;27.27;41.82;94537.78;4932439;29;7133;-62
2023/05/08 00:03:38;;;;;;;;;;;;;;;27.27;41.67;94541.31;4933803;29;7283;-62
2023/05/08 00:06:14;;;;;;;;;;;;;;;27.25;41.92;94534.81;4879666;29;7062;-63
2023/05/08 00:08:40;;;;;;;;;;;;;;;27.25;41.79;94534.81;4901537;29;7097;-62
2023/05/08 00:11:40;;;;;;;;;;;;;;;27.24;41.68;94528.53;4899191;29;9081;-63
2023/05/08 00:14:10;;;;;;;;;;;;;;;27.22;41.79;94530.31;4884157;29;9398;-62
2023/05/08 00:16:36;;;;;;;;;;;;;;;27.25;41.52;94534.81;4898403;29;8931;-63
2023/05/08 00:19:03;;;;;;;;;;;;;;;27.23;41.79;94532.53;4882553;29;7371;-62
2023/05/08 00:22:06;;;;;;;;;;;;;;;27.20;41.87;94539.13;4899135;29;7260;-63
2023/05/08 00:24:42;;;;;;;;;;;;;;;27.21;41.50;94526.78;4857859;29;7268;-63
2023/05/08 00:27:40;;;;;;;;;;;;;;;27.24;41.80;94530.53;4895207;29;7656;-62
2023/05/08 00:30:18;;;;;;;;;;;;;;;27.22;41.91;94535.84;4902582;29;8699;-63
2023/05/08 00:32:45;;;;;;;;;;;;;;;27.22;41.97;94533.81;4887415;29;9082;-63
2023/05/08 00:35:20;;;;;;;;;;;;;;;27.20;41.67;94533.59;4879532;29;8691;-63
2023/05/08 00:37:56;;;;;;;;;;;;;;;27.18;41.70;94541.66;4894323;29;8983;-63
2023/05/08 00:40:54;;;;;;;;;;;;;;;27.19;41.51;94532.09;4885490;29;9537;-63
2023/05/08 00:43:24;;;;;;;;;;;;;;;27.18;41.88;94530.59;4952393;28;7168;-63
2023/05/08 00:46:05;;;;;;;;;;;;;;;27.20;41.58;94533.59;4958457;28;7093;-63
2023/05/08 00:48:41;;;;;;;;;;;;;;;27.18;41.72;94521.56;4947675;28;7190;-62
2023/05/08 00:51:21;;;;;;;;;;;;;;;27.16;41.91;94521.34;4955440;28;7043;-63
2023/05/08 00:54:08;;;;;;;;;;;;;;;27.17;41.90;94522.81;4936141;28;8956;-62
2023/05/08 00:56:52;;;;;;;;;;;;;;;27.16;41.91;94515.81;4955589;28;9439;-63
2023/05/08 00:59:24;;;;;;;;;;;;;;;27.16;41.59;94516.56;5003938;28;7306;-63
2023/05/08 01:02:04;;;;;;;;;;;;;;;27.18;42.05;94514.03;5014183;28;9275;-63
2023/05/08 01:04:51;;;;;;;;;;;;;;;27.18;41.81;94516.81;5015581;28;7809;-63
2023/05/08 01:07:28;;;;;;;;;;;;;;;27.18;42.03;94521.56;5014928;28;7978;-63
2023/05/08 01:10:02;;;;;;;;;;;;;;;27.17;41.88;94512.53;5018368;28;7027;-63
2023/05/08 01:16:34;;;;;;;;;;;;;;;27.16;41.77;94516.56;4982633;28;7710;-63
2023/05/08 01:19:23;;;;;;;;;;;;;;;27.14;41.98;94519.09;4957294;28;8992;-63
2023/05/08 01:22:43;;;;;;;;;;;;;;;27.13;42.17;94522.38;4955821;28;8738;-62
2023/05/08 01:25:59;;;;;;;;;;;;;;;27.12;41.80;94521.63;4975258;28;8737;-62
2023/05/08 01:28:50;;;;;;;;;;;;;;;27.11;41.87;94520.13;4948967;28;9146;-62
2023/05/08 01:31:40;;;;;;;;;;;;;;;27.11;41.81;94520.13;4974316;28;7055;-62
2023/05/08 01:38:08;;;;;;;;;;;;;;;27.10;41.93;94524.16;4893036;29;7261;-62
2023/05/08 01:41:07;;;;;;;;;;;;;;;27.11;41.86;94522.91;4873872;29;8991;-62
2023/05/08 01:43:45;;;;;;;;;;;;;;;27.10;41.90;94526.91;4873129;29;9059;-62
2023/05/08 01:46:56;;;;;;;;;;;;;;;27.12;41.82;94531.94;4880560;29;9061;-62
2023/05/08 01:49:39;;;;;;;;;;;;;;;27.11;41.80;94525.66;4810624;29;10268;-62
2023/05/08 01:52:36;;;;;;;;;;;;;;;27.09;41.75;94525.44;4828871;29;7259;-63
2023/05/08 01:55:11;;;;;;;;;;;;;;;27.10;41.96;94529.66;4858415;29;7271;-62
2023/05/08 01:57:45;;;;;;;;;;;;;;;27.12;42.17;94537.44;4851396;29;9077;-63
2023/05/08 02:00:40;;;;;;;;;;;;;;;27.10;42.01;94528.94;4866120;29;7218;-62
2023/05/08 02:03:12;;;;;;;;;;;;;;;27.09;41.99;94533.72;4856712;29;7027;-62
2023/05/08 02:05:54;;;;;;;;;;;;;;;27.08;41.91;94532.19;4838922;29;7248;-62
2023/05/08 02:08:42;;;;;;;;;;;;;;;27.08;42.04;94539.75;4854473;29;7013;-63
2023/05/08 02:11:12;;;;;;;;;;;;;;;27.08;41.50;94543.25;4858965;29;7324;-62
2023/05/08 02:13:40;;;;;;;;;;;;;;;27.07;42.06;94539.00;4901158;29;9034;-62
2023/05/08 02:16:14;;;;;;;;;;;;;;;27.08;41.80;94542.50;4933359;28;7003;-62
2023/05/08 02:18:51;;;;;;;;;;;;;;;27.08;41.69;94539.75;4937040;28;9484;-62
2023/05/08 02:21:19;;;;;;;;;;;;;;;27.08;41.61;94531.47;4939670;28;9055;-62
2023/05/08 02:23:47;;;;;;;;;;;;;;;27.08;41.87;94540.47;4927451;28;8715;-63
2023/05/08 02:26:15;;;;;;;;;;;;;;;27.09;41.60;94544.00;4980567;28;9186;-62
2023/05/08 02:28:55;;;;;;;;;;;;;;;27.06;41.80;94545.78;5017192;28;9077;-62
2023/05/08 02:31:34;;;;;;;;;;;;;;;27.07;41.92;94538.25;5018183;28;7453;-62
2023/05/08 02:34:04;;;;;;;;;;;;;;;27.06;41.79;94542.25;5009199;28;9043;-62
2023/05/08 02:36:38;;;;;;;;;;;;;;;27.04;41.39;94534.50;4996365;28;9248;-63
2023/05/08 02:39:35;;;;;;;;;;;;;;;27.04;41.97;94547.56;5016377;28;7365;-62
2023/05/08 02:42:02;;;;;;;;;;;;;;;27.04;41.37;94544.78;4988103;28;9586;-62
2023/05/08 02:44:41;;;;;;;;;;;;;;;27.03;42.21;94541.31;4995198;28;9484;-62
2023/05/08 02:50:56;;;;;;;;;;;;;;;27.02;41.65;94539.03;4995450;28;6939;-63
2023/05/08 02:54:13;;;;;;;;;;;;;;;27.00;42.03;94545.09;4982440;28;8761;-63
2023/05/08 02:57:05;;;;;;;;;;;;;;;27.00;42.30;94542.31;4970301;28;9522;-63
2023/05/08 03:00:17;;;;;;;;;;;;;;;27.00;41.97;94541.56;4946654;28;9399;-63
2023/05/08 03:02:48;;;;;;;;;;;;;;;27.00;41.97;94545.09;4896144;29;9308;-62
2023/05/08 03:05:23;;;;;;;;;;;;;;;26.99;42.00;94543.56;4907915;29;9217;-62
2023/05/08 03:07:54;;;;;;;;;;;;;;;26.99;41.89;94542.84;4890614;29;9258;-62
2023/05/08 03:10:30;;;;;;;;;;;;;;;26.99;42.06;94535.28;4902702;29;9079;-63
2023/05/08 03:13:00;;;;;;;;;;;;;;;26.99;41.61;94540.09;4891908;29;9504;-63
2023/05/08 03:15:36;;;;;;;;;;;;;;;26.99;42.02;94540.09;4902588;29;7500;-62
2023/05/08 03:18:10;;;;;;;;;;;;;;;26.98;42.25;94538.59;4890261;29;7568;-63
2023/05/08 03:20:43;;;;;;;;;;;;;;;26.98;41.96;94533.81;4881018;29;7962;-62
2023/05/08 03:23:14;;;;;;;;;;;;;;;26.95;41.98;94534.84;4881952;29;8985;-62
2023/05/08 03:25:42;;;;;;;;;;;;;;;26.96;41.89;94546.63;4880911;29;7242;-63
2023/05/08 03:28:10;;;;;;;;;;;;;;;26.95;41.97;94545.88;4886468;29;7575;-63
2023/05/08 03:30:41;;;;;;;;;;;;;;;26.98;41.92;94544.09;4864463;29;9416;-62
2023/05/08 03:33:11;;;;;;;;;;;;;;;26.98;41.82;94542.09;4933351;29;7269;-63
2023/05/08 03:35:38;;;;;;;;;;;;;;;26.97;41.96;94543.34;4939777;28;7850;-62
2023/05/08 03:38:06;;;;;;;;;;;;;;;26.96;42.11;94541.88;4996999;28;9405;-63
2023/05/08 03:40:37;;;;;;;;;;;;;;;26.95;41.76;94550.66;5009524;28;7239;-62
2023/05/08 03:43:08;;;;;;;;;;;;;;;26.96;41.71;94547.38;5012946;28;7550;-62
2023/05/08 03:45:36;;;;;;;;;;;;;;;26.96;41.99;94544.63;5023821;28;8597;-63
2023/05/08 03:48:04;;;;;;;;;;;;;;;26.96;42.22;94544.63;5001865;28;9391;-63
2023/05/08 03:50:31;;;;;;;;;;;;;;;26.93;41.66;94542.88;5019977;28;9059;-62
2023/05/08 03:53:04;;;;;;;;;;;;;;;26.94;42.37;94549.91;5017995;28;9037;-62
2023/05/08 03:56:06;;;;;;;;;;;;;;;26.94;42.24;94547.16;5022433;28;7050;-63
2023/05/08 03:59:17;;;;;;;;;;;;;;;26.94;42.12;94549.16;4924330;29;7011;-62
2023/05/08 04:02:08;;;;;;;;;;;;;;;26.94;41.64;94552.69;4925124;29;9426;-62
2023/05/08 04:04:58;;;;;;;;;;;;;;;26.95;41.41;94558.94;4912421;29;9057;-63
2023/05/08 04:07:52;;;;;;;;;;;;;;;26.93;41.72;94556.69;4910644;29;7909;-62
2023/05/08 04:10:28;;;;;;;;;;;;;;;26.93;42.12;94556.69;4929988;28;9434;-62
2023/05/08 04:13:12;;;;;;;;;;;;;;;26.92;42.49;94555.94;4931414;29;8768;-62
2023/05/08 04:16:06;;;;;;;;;;;;;;;26.91;41.97;94564.75;4926229;29;7073;-62
2023/05/08 04:18:53;;;;;;;;;;;;;;;26.88;42.16;94563.75;4913656;29;9084;-62
2023/05/08 04:21:54;;;;;;;;;;;;;;;26.90;41.53;94566.75;4915767;29;8263;-61
2023/05/08 04:24:34;;;;;;;;;;;;;;;26.92;41.70;94573.78;4861015;29;9238;-61
2023/05/08 04:27:03;;;;;;;;;;;;;;;26.88;41.76;94565.78;4877619;29;8665;-61
2023/05/08 04:29:40;;;;;;;;;;;;;;;26.89;41.94;94570.03;4880074;29;8734;-61
2023/05/08 04:32:16;;;;;;;;;;;;;;;26.89;42.25;94567.28;4877632;29;9474;-61
2023/05/08 04:34:44;;;;;;;;;;;;;;;26.90;41.92;94574.31;4901245;29;7071;-61
2023/05/08 04:37:32;;;;;;;;;;;;;;;26.89;41.88;94583.81;4923555;28;7026;-61
2023/05/08 04:40:09;;;;;;;;;;;;;;;26.86;42.36;94582.13;4936977;28;7116;-62
2023/05/08 04:42:54;;;;;;;;;;;;;;;26.83;42.19;94572.09;4937345;28;7226;-61
2023/05/08 04:45:31;;;;;;;;;;;;;;;26.83;41.91;94583.13;4925990;29;9916;-62
2023/05/08 04:47:56;;;;;;;;;;;;;;;26.79;42.32;94566.88;4932394;28;9059;-62
2023/05/08 04:50:23;;;;;;;;;;;;;;;26.79;42.07;94566.88;4943452;28;8588;-62
2023/05/08 04:52:49;;;;;;;;;;;;;;;26.79;41.77;94560.59;4939833;28;8771;-62
2023/05/08 04:55:15;;;;;;;;;;;;;;;26.77;42.74;94561.09;4938854;28;7104;-61
2023/05/08 04:57:41;;;;;;;;;;;;;;;26.77;42.38;94568.63;4941321;28;9196;-61
2023/05/08 05:00:10;;;;;;;;;;;;;;;26.77;42.51;94563.13;4976635;28;7351;-61
2023/05/08 05:02:39;;;;;;;;;;;;;;;26.78;42.22;94559.06;5013833;28;8575;-61
2023/05/08 05:05:06;;;;;;;;;;;;;;;26.79;42.34;94568.88;5023693;28;8736;-62
2023/05/08 05:07:33;;;;;;;;;;;;;;;26.79;42.38;94564.09;5015593;28;7181;-63
2023/05/08 05:09:59;;;;;;;;;;;;;;;26.80;42.60;94562.06;5005166;28;9521;-62
2023/05/08 05:12:26;;;;;;;;;;;;;;;26.78;42.43;94564.59;5013004;28;7010;-62
2023/05/08 05:14:53;;;;;;;;;;;;;;;26.76;43.37;94569.88;5015052;28;9159;-62
2023/05/08 05:17:21;;;;;;;;;;;;;;;26.74;44.58;94564.88;4999653;28;7607;-62
2023/05/08 05:19:52;;;;;;;;;;;;;;;26.76;44.16;94567.13;5021736;28;7365;-62
2023/05/08 05:22:18;;;;;;;;;;;;;;;26.77;44.61;94566.59;5012952;28;7040;-62
2023/05/08 05:24:44;;;;;;;;;;;;;;;26.81;43.67;94569.09;5003089;28;9343;-62
2023/05/08 05:27:10;;;;;;;;;;;;;;;26.77;43.84;94563.13;5006670;28;8961;-62
2023/05/08 05:29:37;;;;;;;;;;;;;;;26.80;43.17;94575.88;5011174;28;7735;-62
2023/05/08 05:32:09;;;;;;;;;;;;;;;26.78;43.28;94575.63;5021752;28;7293;-62
2023/05/08 05:34:42;;;;;;;;;;;;;;;26.78;43.72;94581.16;5016314;28;9049;-62
2023/05/08 05:37:08;;;;;;;;;;;;;;;26.73;43.48;94574.41;5014186;28;6940;-62
2023/05/08 05:39:47;;;;;;;;;;;;;;;26.75;43.43;94582.19;5025194;28;9126;-62
2023/05/08 05:42:18;;;;;;;;;;;;;;;26.74;43.21;94580.69;5025231;28;9040;-62
2023/05/08 05:44:44;;;;;;;;;;;;;;;26.73;43.07;94579.22;5018038;28;8702;-62
2023/05/08 05:47:11;;;;;;;;;;;;;;;26.74;43.07;94580.69;4997429;28;9472;-62
2023/05/08 05:49:38;;;;;;;;;;;;;;;26.71;43.47;94578.91;5014349;28;7249;-62
2023/05/08 05:52:10;;;;;;;;;;;;;;;26.73;43.23;94584.72;5017267;28;9036;-62
2023/05/08 05:54:47;;;;;;;;;;;;;;;26.71;42.91;94576.91;5010180;28;9323;-61
2023/05/08 05:57:15;;;;;;;;;;;;;;;26.72;42.58;94583.19;5021032;28;7038;-61
2023/05/08 05:59:46;;;;;;;;;;;;;;;26.71;43.08;94581.69;5010503;28;7171;-61
2023/05/08 06:02:44;;;;;;;;;;;;;;;26.70;43.05;94580.94;5014852;28;8466;-61
2023/05/08 06:05:23;;;;;;;;;;;;;;;26.69;43.41;94579.44;4942025;28;7031;-61
2023/05/08 06:08:04;;;;;;;;;;;;;;;26.69;43.01;94584.22;4980683;28;8936;-62
2023/05/08 06:11:04;;;;;;;;;;;;;;;26.70;42.81;94583.72;4957133;28;9135;-61
2023/05/08 06:13:44;;;;;;;;;;;;;;;26.69;43.26;94584.22;4932676;28;7367;-61
2023/05/08 06:16:10;;;;;;;;;;;;;;;26.69;42.81;94584.97;4915376;29;7043;-62
2023/05/08 06:18:51;;;;;;;;;;;;;;;26.70;42.77;94583.72;4916791;29;8205;-62
2023/05/08 06:21:18;;;;;;;;;;;;;;;26.72;43.29;94585.94;4918003;29;9094;-62
2023/05/08 06:23:46;;;;;;;;;;;;;;;26.72;43.06;94588.72;4933043;28;6862;-62
2023/05/08 06:26:12;;;;;;;;;;;;;;;26.69;42.93;94584.22;4928965;28;9625;-61
2023/05/08 06:29:15;;;;;;;;;;;;;;;26.72;42.75;94591.47;4933404;29;7265;-62
2023/05/08 06:32:01;;;;;;;;;;;;;;;26.70;42.87;94585.72;4861316;29;8614;-61
2023/05/08 06:34:30;;;;;;;;;;;;;;;26.72;43.04;94583.19;4870875;29;9051;-61
2023/05/08 06:37:28;;;;;;;;;;;;;;;26.72;42.83;94588.72;4877495;29;7309;-61
2023/05/08 06:40:03;;;;;;;;;;;;;;;26.71;43.12;94589.97;4870917;29;9062;-61
2023/05/08 06:42:50;;;;;;;;;;;;;;;26.72;42.86;94583.19;4894170;29;9684;-62
2023/05/08 06:45:26;;;;;;;;;;;;;;;26.71;42.72;94582.44;4883641;29;9270;-61
2023/05/08 06:48:42;;;;;;;;;;;;;;;26.74;42.40;94583.44;4896530;29;7038;-62
2023/05/08 06:51:49;;;;;;;;;;;;;;;26.75;42.79;94590.47;4873452;29;7058;-62
2023/05/08 06:54:15;;;;;;;;;;;;;;;26.72;42.97;94589.47;4863410;29;9340;-62
2023/05/08 06:56:45;;;;;;;;;;;;;;;26.72;42.91;94588.72;4859675;29;9022;-61
2023/05/08 06:59:30;;;;;;;;;;;;;;;26.72;43.01;94588.72;4857358;29;7356;-61
2023/05/08 07:02:15;;;;;;;;;;;;;;;26.71;42.78;94590.72;4865719;29;9073;-62
2023/05/08 07:04:43;;;;;;;;;;;;;;;26.71;42.75;94590.72;4868586;28;7004;-61
2023/05/08 07:07:12;;;;;;;;;;;;;;;26.70;42.61;94592.00;4945456;28;8755;-62
2023/05/08 07:09:51;;;;;;;;;;;;;;;26.72;42.88;94599.75;4947115;28;9325;-61
2023/05/08 07:12:29;;;;;;;;;;;;;;;26.71;42.92;94595.47;4943695;28;7048;-62
2023/05/08 07:15:06;;;;;;;;;;;;;;;26.71;42.94;94592.72;4936938;28;7040;-62
2023/05/08 07:17:35;;;;;;;;;;;;;;;26.71;43.09;94595.47;4947646;28;8790;-62
2023/05/08 07:20:03;;;;;;;;;;;;;;;26.72;42.86;94596.97;4920135;29;7103;-62
2023/05/08 07:22:44;;;;;;;;;;;;;;;26.70;42.56;94589.22;4930255;29;9055;-62
2023/05/08 07:25:10;;;;;;;;;;;;;;;26.70;42.61;94592.00;4934772;29;7281;-62
2023/05/08 07:27:46;;;;;;;;;;;;;;;26.73;43.51;94596.50;4976665;28;7242;-62
2023/05/08 07:30:30;;;;;;;;;;;;;;;26.73;42.97;94595.78;5016164;28;7459;-62
2023/05/08 07:33:15;;;;;;;;;;;;;;;26.72;42.78;94594.97;5014514;28;9079;-62
2023/05/08 07:35:53;;;;;;;;;;;;;;;26.72;42.86;94597.75;5017943;28;7169;-62
2023/05/08 07:38:57;;;;;;;;;;;;;;;26.71;42.60;94599.00;5014037;28;7035;-62
2023/05/08 07:41:58;;;;;;;;;;;;;;;26.71;42.85;94599.00;5017846;28;8970;-61
2023/05/08 07:44:52;;;;;;;;;;;;;;;26.71;42.88;94593.47;4931467;29;8855;-62
2023/05/08 07:47:28;;;;;;;;;;;;;;;26.73;42.67;94595.78;4928483;29;7280;-62
2023/05/08 07:50:04;;;;;;;;;;;;;;;26.73;43.38;94596.50;4916887;29;9143;-61
2023/05/08 07:52:30;;;;;;;;;;;;;;;26.72;42.66;94605.25;4929071;29;8629;-62
2023/05/08 07:54:57;;;;;;;;;;;;;;;26.73;42.66;94595.78;4921548;29;7092;-62
2023/05/08 07:57:23;;;;;;;;;;;;;;;26.71;42.70;94603.75;4927021;29;7031;-62
2023/05/08 07:59:51;;;;;;;;;;;;;;;26.73;42.88;94602.00;4927017;29;9066;-61
2023/05/08 08:02:47;;;;;;;;;;;;;;;26.72;42.68;94605.25;4928835;29;9399;-62
2023/05/08 08:05:31;;;;;;;;;;;;;;;26.73;42.96;94604.78;4858444;29;9120;-61
2023/05/08 08:07:57;;;;;;;;;;;;;;;26.72;42.83;94608.78;4857979;29;9059;-62
2023/05/08 08:10:49;;;;;;;;;;;;;;;26.72;42.91;94602.50;4865967;29;9137;-61
2023/05/08 08:13:16;;;;;;;;;;;;;;;26.71;43.16;94612.03;4865698;29;9706;-62
2023/05/08 08:15:43;;;;;;;;;;;;;;;26.70;43.02;94603.03;4852627;29;9358;-62
2023/05/08 08:18:09;;;;;;;;;;;;;;;26.70;42.95;94605.03;4857282;29;8434;-62
2023/05/08 08:20:35;;;;;;;;;;;;;;;26.71;42.77;94603.75;4910820;28;9416;-62
2023/05/08 08:23:01;;;;;;;;;;;;;;;26.72;42.70;94605.25;4948699;28;7085;-62
2023/05/08 08:25:27;;;;;;;;;;;;;;;26.72;42.89;94599.75;4948776;28;8625;-61
2023/05/08 08:27:53;;;;;;;;;;;;;;;26.73;42.88;94595.78;4930040;28;7233;-62
2023/05/08 08:30:21;;;;;;;;;;;;;;;26.73;42.90;94595.78;4948223;28;7322;-62
2023/05/08 08:32:47;;;;;;;;;;;;;;;26.73;42.45;94598.53;4935352;28;7255;-62
2023/05/08 08:35:13;;;;;;;;;;;;;;;26.75;43.06;94593.97;4936911;28;9311;-62
2023/05/08 08:37:39;;;;;;;;;;;;;;;26.74;42.73;94598.00;4950788;28;8758;-62
2023/05/08 08:40:07;;;;;;;;;;;;;;;26.74;42.38;94594.50;4952899;28;9347;-62
2023/05/08 08:42:46;;;;;;;;;;;;;;;26.74;42.70;94595.25;5005406;28;8031;-61
2023/05/08 08:45:42;;;;;;;;;;;;;;;26.76;43.13;94605.75;5011850;28;7187;-62
2023/05/08 08:48:29;;;;;;;;;;;;;;;26.74;42.55;94598.00;4974213;28;9146;-61
2023/05/08 08:51:23;;;;;;;;;;;;;;;26.75;43.03;94598.75;4969488;28;9051;-62
2023/05/08 08:54:40;;;;;;;;;;;;;;;26.76;42.96;94600.25;4968724;28;9107;-62
2023/05/08 08:57:26;;;;;;;;;;;;;;;26.76;42.56;94601.00;4967479;28;9018;-61
2023/05/08 08:59:59;;;;;;;;;;;;;;;26.76;42.63;94601.00;4974600;28;9163;-61
2023/05/08 09:02:30;;;;;;;;;;;;;;;26.77;42.27;94601.75;4973089;28;6858;-62
2023/05/08 09:05:17;;;;;;;;;;;;;;;26.78;42.77;94601.22;4953082;28;7126;-62
2023/05/08 09:08:17;;;;;;;;;;;;;;;26.78;42.78;94601.22;4958171;28;7041;-62
2023/05/08 09:11:11;;;;;;;;;;;;;;;26.80;42.85;94600.72;4973089;28;9063;-62
2023/05/08 09:14:08;;;;;;;;;;;;;;;26.79;42.79;94605.50;4912990;29;7286;-62
2023/05/08 09:16:45;;;;;;;;;;;;;;;26.80;42.97;94606.22;4882421;29;7237;-62
2023/05/08 09:19:14;;;;;;;;;;;;;;;26.80;42.88;94603.47;4882400;29;7472;-62
2023/05/08 09:21:50;;;;;;;;;;;;;;;26.80;43.11;94603.47;4876500;29;9159;-62
2023/05/08 09:28:13;;;;;;;;;;;;;;;26.80;42.38;94609.75;4887740;29;7263;-63
2023/05/08 09:30:55;;;;;;;;;;;;;;;26.80;42.64;94617.25;4878844;29;8094;-62
2023/05/08 09:33:56;;;;;;;;;;;;;;;26.79;42.60;94622.06;4866086;29;9191;-62
2023/05/08 09:37:10;;;;;;;;;;;;;;;26.79;43.07;94619.28;4864266;29;7277;-62
2023/05/08 09:40:21;;;;;;;;;;;;;;;26.80;42.60;94615.25;4860002;29;8883;-62
2023/05/08 09:42:49;;;;;;;;;;;;;;;26.78;43.05;94614.28;4863711;29;7266;-62
2023/05/08 09:45:43;;;;;;;;;;;;;;;26.80;42.89;94617.25;4860022;29;7036;-61
2023/05/08 09:48:41;;;;;;;;;;;;;;;26.79;42.75;94613.78;4859803;29;7029;-62
2023/05/08 09:51:08;;;;;;;;;;;;;;;26.80;43.20;94618.03;4929321;28;7505;-62
2023/05/08 09:53:43;;;;;;;;;;;;;;;26.81;42.52;94616.78;4945362;28;8884;-62
2023/05/08 09:56:57;;;;;;;;;;;;;;;26.83;42.73;94619.00;4960207;28;7301;-62
2023/05/08 09:59:27;;;;;;;;;;;;;;;26.83;42.96;94619.75;4972387;28;6989;-62
2023/05/08 10:01:56;;;;;;;;;;;;;;;26.82;42.84;94611.97;4972061;28;7260;-62
2023/05/08 10:04:33;;;;;;;;;;;;;;;26.82;42.72;94621.00;4975271;28;8996;-62
2023/05/08 10:07:34;;;;;;;;;;;;;;;26.82;42.44;94615.50;4971444;28;9072;-62
2023/05/08 10:10:05;;;;;;;;;;;;;;;26.82;42.46;94621.00;4933492;28;9313;-63
2023/05/08 10:12:47;;;;;;;;;;;;;;;26.86;42.72;94624.25;4929322;29;7408;-62
2023/05/08 10:15:28;;;;;;;;;;;;;;;26.88;42.41;94623.75;4951187;28;9029;-63
2023/05/08 10:18:08;;;;;;;;;;;;;;;26.88;42.73;94626.50;4948245;28;9175;-63
2023/05/08 10:20:54;;;;;;;;;;;;;;;26.87;42.54;94623.00;4938389;28;7099;-63
2023/05/08 10:23:36;;;;;;;;;;;;;;;26.88;42.41;94621.00;4953734;28;9338;-62
2023/05/08 10:26:26;;;;;;;;;;;;;;;26.89;42.43;94617.69;4958261;28;8606;-63
2023/05/08 10:29:33;;;;;;;;;;;;;;;26.90;42.47;94618.47;4966353;28;9173;-63
2023/05/08 10:32:13;;;;;;;;;;;;;;;26.90;42.38;94610.91;4966973;28;7287;-63
2023/05/08 10:34:52;;;;;;;;;;;;;;;26.90;42.13;94605.38;4940729;28;9170;-63
2023/05/08 10:37:29;;;;;;;;;;;;;;;26.90;42.18;94599.88;4953915;28;9116;-62
2023/05/08 10:40:09;;;;;;;;;;;;;;;26.92;42.52;94599.38;4939203;28;9086;-63
2023/05/08 10:42:35;;;;;;;;;;;;;;;26.92;42.07;94584.81;4954500;28;7222;-63
2023/05/08 10:45:04;;;;;;;;;;;;;;;26.90;42.45;94593.63;4954920;28;9257;-63
2023/05/08 10:47:43;;;;;;;;;;;;;;;26.93;42.48;94592.56;5023888;28;7037;-63
2023/05/08 10:50:29;;;;;;;;;;;;;;;26.96;42.55;94582.50;5021312;28;8544;-63
2023/05/08 10:53:52;;;;;;;;;;;;;;;26.97;42.34;94587.50;5013321;28;9489;-62
2023/05/08 10:56:30;;;;;;;;;;;;;;;26.97;42.30;94584.75;4946139;28;7210;-62
2023/05/08 10:59:47;;;;;;;;;;;;;;;26.98;42.32;94577.97;4948713;28;8726;-62
2023/05/08 11:02:38;;;;;;;;;;;;;;;27.00;42.13;94574.69;4877913;29;7271;-63
2023/05/08 11:05:29;;;;;;;;;;;;;;;26.98;42.20;94572.47;4879198;29;9341;-62
2023/05/08 11:08:23;;;;;;;;;;;;;;;26.98;42.03;94575.22;4873643;29;7497;-62
2023/05/08 11:11:16;;;;;;;;;;;;;;;27.02;42.16;94574.94;4870876;29;9026;-62
2023/05/08 11:13:51;;;;;;;;;;;;;;;26.99;41.59;94568.41;4877296;29;7057;-62
2023/05/08 11:16:53;;;;;;;;;;;;;;;27.01;42.27;94576.22;4891298;29;9072;-62
2023/05/08 11:19:21;;;;;;;;;;;;;;;26.99;42.43;94573.94;4880775;29;7125;-62
2023/05/08 11:25:42;;;;;;;;;;;;;;;27.03;42.26;94577.19;4854393;29;7048;-62
2023/05/08 11:28:18;;;;;;;;;;;;;;;27.01;42.21;94571.44;4842757;29;9645;-62
2023/05/08 11:30:46;;;;;;;;;;;;;;;27.03;41.71;94571.66;4856495;29;7866;-62
2023/05/08 11:33:55;;;;;;;;;;;;;;;27.03;41.94;94568.91;4874937;29;9220;-62
2023/05/08 11:36:37;;;;;;;;;;;;;;;27.02;41.88;94564.63;4875078;29;8707;-62
2023/05/08 11:39:16;;;;;;;;;;;;;;;27.01;41.88;94556.88;4922482;29;7240;-63
2023/05/08 11:42:23;;;;;;;;;;;;;;;27.03;41.98;94566.16;4938252;29;7118;-62
2023/05/08 11:45:12;;;;;;;;;;;;;;;27.03;41.99;94562.63;4851636;29;7640;-63
2023/05/08 11:47:43;;;;;;;;;;;;;;;27.04;41.72;94561.34;4861295;29;9051;-62
2023/05/08 11:50:12;;;;;;;;;;;;;;;27.03;42.10;94560.63;4859442;29;7036;-62
2023/05/08 11:52:40;;;;;;;;;;;;;;;27.07;41.64;94565.84;4846554;29;7338;-62
2023/05/08 11:55:10;;;;;;;;;;;;;;;27.03;42.01;94566.16;4855363;29;7049;-62
2023/05/08 11:57:37;;;;;;;;;;;;;;;27.06;41.68;94562.34;4835899;29;7273;-62
2023/05/08 12:00:08;;;;;;;;;;;;;;;27.08;41.80;94570.13;4910532;29;6979;-62
2023/05/08 12:03:10;;;;;;;;;;;;;;;27.08;41.79;94570.84;4936894;29;8714;-62
2023/05/08 12:05:44;;;;;;;;;;;;;;;27.09;41.31;94566.84;4883410;29;7060;-62
2023/05/08 12:08:12;;;;;;;;;;;;;;;27.10;41.47;94571.09;4899395;29;7030;-62
2023/05/08 12:11:02;;;;;;;;;;;;;;;27.09;41.65;94572.38;4883359;29;7134;-62
2023/05/08 12:13:51;;;;;;;;;;;;;;;27.09;41.51;94569.59;4898866;29;7375;-62
2023/05/08 12:20:21;;;;;;;;;;;;;;;27.11;41.63;94569.84;4915741;29;8715;-62
2023/05/08 12:23:15;;;;;;;;;;;;;;;27.08;41.71;94570.84;4900047;29;9128;-62
2023/05/08 12:26:20;;;;;;;;;;;;;;;27.07;41.77;94574.88;4916903;29;9530;-62
2023/05/08 12:29:09;;;;;;;;;;;;;;;27.07;41.36;94563.09;4907723;29;7436;-62
2023/05/08 12:31:37;;;;;;;;;;;;;;;27.09;41.42;94563.31;4906043;29;7327;-62
2023/05/08 12:34:24;;;;;;;;;;;;;;;27.12;41.82;94565.06;4912527;29;8411;-62
2023/05/08 12:37:02;;;;;;;;;;;;;;;27.12;41.31;94554.75;4911681;29;7043;-62
2023/05/08 12:39:35;;;;;;;;;;;;;;;27.11;41.31;94561.53;4896878;29;8591;-63
2023/05/08 12:42:04;;;;;;;;;;;;;;;27.11;41.54;94558.78;4964418;28;7946;-62
2023/05/08 12:44:31;;;;;;;;;;;;;;;27.09;41.55;94558.56;4948334;28;7030;-61
2023/05/08 12:47:24;;;;;;;;;;;;;;;27.08;41.44;94565.31;4966244;28;7263;-61
2023/05/08 12:49:50;;;;;;;;;;;;;;;27.10;41.80;94560.03;4972831;28;9031;-61
2023/05/08 12:52:43;;;;;;;;;;;;;;;27.15;41.78;94558.50;4974412;28;6988;-62
2023/05/08 12:55:51;;;;;;;;;;;;;;;27.18;41.68;94560.97;5021481;28;7128;-62
2023/05/08 12:58:19;;;;;;;;;;;;;;;27.18;41.68;94557.47;5014439;28;9068;-62
2023/05/08 13:00:52;;;;;;;;;;;;;;;27.20;41.59;94552.94;5016058;28;7034;-62
2023/05/08 13:03:28;;;;;;;;;;;;;;;27.22;41.79;94552.41;5010950;28;8136;-62
2023/05/08 13:05:56;;;;;;;;;;;;;;;27.23;41.67;94554.63;5014499;28;8728;-61
2023/05/08 13:08:36;;;;;;;;;;;;;;;27.25;41.92;94559.66;5019172;28;7011;-62
2023/05/08 13:11:30;;;;;;;;;;;;;;;27.28;41.95;94551.06;5015156;28;7068;-61
2023/05/08 13:13:56;;;;;;;;;;;;;;;27.30;41.86;94554.06;5025932;28;7248;-62
2023/05/08 13:16:41;;;;;;;;;;;;;;;27.31;42.27;94557.59;5016044;28;9017;-61
2023/05/08 13:19:07;;;;;;;;;;;;;;;27.28;41.85;94556.59;5023601;28;9052;-62
2023/05/08 13:21:33;;;;;;;;;;;;;;;27.30;41.77;94554.06;4997993;28;7415;-61
2023/05/08 13:24:14;;;;;;;;;;;;;;;27.30;41.76;94553.31;5021487;28;7420;-62
2023/05/08 13:27:04;;;;;;;;;;;;;;;27.30;41.94;94553.31;5024882;28;9009;-62
2023/05/08 13:29:31;;;;;;;;;;;;;;;27.31;41.43;94557.59;5002986;28;9386;-61
2023/05/08 13:32:28;;;;;;;;;;;;;;;27.29;42.02;94558.13;5018642;28;7298;-62
2023/05/08 13:34:54;;;;;;;;;;;;;;;27.28;42.29;94550.31;5014196;28;7056;-62
2023/05/08 13:37:27;;;;;;;;;;;;;;;27.29;42.07;94551.84;5014436;28;7030;-62
2023/05/08 13:40:04;;;;;;;;;;;;;;;27.27;42.08;94549.59;5008078;28;7283;-62
2023/05/08 13:42:43;;;;;;;;;;;;;;;27.26;42.05;94555.63;5010673;28;7200;-61
2023/05/08 13:45:21;;;;;;;;;;;;;;;27.25;42.23;94548.63;5014793;28;8689;-62
2023/05/08 13:47:57;;;;;;;;;;;;;;;27.26;42.01;94550.09;5018260;28;9015;-62
2023/05/08 13:50:24;;;;;;;;;;;;;;;27.27;41.83;94546.09;4997143;28;8505;-61
2023/05/08 13:52:54;;;;;;;;;;;;;;;27.24;42.23;94549.88;4999524;28;8856;-62
2023/05/08 13:56:06;;;;;;;;;;;;;;;27.25;42.01;94551.38;5001779;28;7006;-63
2023/05/08 13:58:34;;;;;;;;;;;;;;;27.29;42.00;94541.53;4991866;28;7030;-62
2023/05/08 14:01:15;;;;;;;;;;;;;;;27.28;42.19;94547.56;4971669;28;8694;-63
2023/05/08 14:04:00;;;;;;;;;;;;;;;27.27;42.18;94548.84;4964015;28;9028;-62
2023/05/08 14:06:28;;;;;;;;;;;;;;;27.26;42.09;94550.09;4973950;28;8849;-62
2023/05/08 14:09:23;;;;;;;;;;;;;;;27.27;42.10;94551.59;4974092;28;7278;-61
2023/05/08 14:11:59;;;;;;;;;;;;;;;27.28;42.20;94553.84;4961488;28;9331;-61
2023/05/08 14:14:49;;;;;;;;;;;;;;;27.27;41.96;94544.06;4964997;28;9100;-61
2023/05/08 14:17:24;;;;;;;;;;;;;;;27.26;41.64;94541.81;4969113;28;7254;-61
2023/05/08 14:19:50;;;;;;;;;;;;;;;27.27;42.03;94551.59;4954336;28;7216;-62
2023/05/08 14:22:28;;;;;;;;;;;;;;;27.27;41.98;94549.59;4950659;28;7433;-62
2023/05/08 14:25:05;;;;;;;;;;;;;;;27.26;42.00;94555.63;4968309;28;6985;-62